Time;durP1;ratioP1;P1;durP2;ratioP2;P2;SDS_P1;SDS_P2;PMS_P1;PMS_P2;Temp;Humidity;BMP_temperature;BMP_pressure;BME280_temperature;BME280_humidity;BME280_pressure;Samples;Min_cycle;Max_cycle;Signal;HPM_P1;HPM_P2
2021/12/14 00:02:18;;;;;;;17.35;11.48;;;9.00;99.90;;;;;;5033465;28;20045;-62
2021/12/14 00:04:44;;;;;;;17.50;10.77;;;8.90;99.90;;;;;;5038056;28;20503;-62
2021/12/14 00:07:14;;;;;;;20.45;12.02;;;8.90;99.90;;;;;;5037195;28;20559;-59
2021/12/14 00:09:41;;;;;;;16.02;11.10;;;9.00;99.90;;;;;;5037671;28;20047;-59
2021/12/14 00:13:22;;;;;;;17.50;11.52;;;8.90;99.90;;;;;;5036138;28;20395;-60
2021/12/14 00:15:15;;;;;;;17.98;11.55;;;8.90;99.90;;;;;;5032556;28;20045;-58
2021/12/14 00:17:55;;;;;;;19.50;12.00;;;8.70;99.90;;;;;;5036518;28;20045;-59
2021/12/14 00:20:26;;;;;;;17.83;10.63;;;8.90;99.90;;;;;;5037559;28;20120;-59
2021/12/14 00:25:20;;;;;;;18.17;12.20;;;8.90;99.90;;;;;;5037708;28;20045;-60
2021/12/14 00:27:46;;;;;;;20.35;12.43;;;8.90;99.90;;;;;;5039315;28;20046;-64
2021/12/14 00:30:12;;;;;;;21.67;12.77;;;8.90;99.90;;;;;;5040392;28;20081;-64
2021/12/14 00:32:38;;;;;;;18.17;12.00;;;8.90;99.90;;;;;;5037295;28;20373;-59
2021/12/14 00:35:12;;;;;;;21.42;12.35;;;8.80;99.90;;;;;;5035523;28;20049;-61
2021/12/14 00:37:47;;;;;;;22.42;13.35;;;8.80;99.90;;;;;;5020041;28;20049;-58
2021/12/14 00:40:19;;;;;;;22.90;12.63;;;8.80;99.90;;;;;;5036734;28;20093;-58
2021/12/14 00:42:46;;;;;;;18.30;13.23;;;8.70;99.90;;;;;;5038054;28;20052;-58
2021/12/14 00:45:12;;;;;;;22.55;13.98;;;8.80;99.90;;;;;;5036888;28;20187;-59
2021/12/14 00:47:38;;;;;;;22.33;13.70;;;8.70;99.90;;;;;;5038383;28;20042;-59
2021/12/14 00:50:05;;;;;;;22.58;13.95;;;8.60;99.90;;;;;;5037215;28;20047;-59
2021/12/14 00:52:31;;;;;;;20.73;14.13;;;8.80;99.90;;;;;;5036691;28;20038;-60
2021/12/14 00:54:57;;;;;;;19.17;13.55;;;8.80;99.90;;;;;;5035460;28;20057;-59
2021/12/14 00:57:23;;;;;;;21.25;13.90;;;8.80;99.90;;;;;;5035107;28;20128;-60
2021/12/14 00:59:49;;;;;;;18.33;12.77;;;9.00;99.90;;;;;;5035710;28;20584;-58
2021/12/14 01:02:21;;;;;;;21.00;13.52;;;8.80;99.90;;;;;;5036431;28;20040;-60
2021/12/14 01:04:50;;;;;;;20.38;13.88;;;8.70;99.90;;;;;;5036449;28;20046;-60
2021/12/14 01:07:18;;;;;;;23.40;14.10;;;8.90;99.90;;;;;;5036858;28;20046;-59
2021/12/14 01:09:57;;;;;;;23.38;14.48;;;9.00;99.90;;;;;;5036351;28;20625;-58
2021/12/14 01:12:38;;;;;;;24.48;14.73;;;9.00;99.90;;;;;;5037232;28;20049;-58
2021/12/14 01:15:25;;;;;;;25.80;15.63;;;9.10;99.90;;;;;;5034729;28;20045;-59
2021/12/14 01:20:52;;;;;;;24.05;14.23;;;9.10;99.90;;;;;;5036375;28;20045;-59
2021/12/14 01:23:29;;;;;;;21.67;13.88;;;8.80;99.90;;;;;;5035925;28;20491;-59
2021/12/14 01:25:58;;;;;;;24.35;14.55;;;8.80;99.90;;;;;;5036340;28;20115;-58
2021/12/14 01:28:28;;;;;;;24.45;16.50;;;8.90;99.90;;;;;;5035333;28;20048;-59
2021/12/14 01:33:31;;;;;;;24.45;14.88;;;8.90;99.90;;;;;;5036288;28;20415;-58
2021/12/14 01:35:58;;;;;;;23.70;14.93;;;8.80;99.90;;;;;;5036026;28;20045;-58
2021/12/14 01:40:55;;;;;;;27.35;16.05;;;8.70;99.90;;;;;;5035441;28;20041;-59
2021/12/14 01:43:29;;;;;;;27.02;16.45;;;8.70;99.90;;;;;;5034420;28;20050;-59
2021/12/14 01:45:58;;;;;;;25.80;15.20;;;8.80;99.90;;;;;;5034294;28;20042;-58
2021/12/14 01:48:24;;;;;;;23.83;16.05;;;8.80;99.90;;;;;;5034764;28;20060;-58
2021/12/14 01:50:56;;;;;;;23.63;16.17;;;8.80;99.90;;;;;;5018729;28;20033;-59
2021/12/14 01:53:23;;;;;;;27.13;15.93;;;9.00;99.90;;;;;;5018252;28;20053;-58
2021/12/14 01:55:53;;;;;;;23.98;15.50;;;8.80;99.90;;;;;;5035813;28;20030;-62
2021/12/14 01:58:20;;;;;;;26.25;15.63;;;;;;;;;;5034926;28;20040;-62
2021/12/14 02:00:56;;;;;;;26.45;16.13;;;9.00;99.90;;;;;;5037071;28;20041;-62
2021/12/14 02:03:29;;;;;;;23.33;16.92;;;8.80;99.90;;;;;;5036937;28;20041;-58
2021/12/14 02:05:55;;;;;;;24.48;15.95;;;8.80;99.90;;;;;;5035356;28;20103;-59
2021/12/14 02:08:28;;;;;;;25.63;16.02;;;8.90;99.90;;;;;;5035446;28;20488;-59
2021/12/14 02:10:56;;;;;;;25.30;16.08;;;8.90;99.90;;;;;;5034940;28;20041;-58
2021/12/14 02:13:29;;;;;;;25.00;17.00;;;8.80;99.90;;;;;;5036389;28;20464;-58
2021/12/14 02:15:55;;;;;;;28.52;17.85;;;8.80;99.90;;;;;;5035904;28;20045;-57
2021/12/14 02:18:24;;;;;;;25.65;16.00;;;8.70;99.90;;;;;;5035139;28;20064;-58
2021/12/14 02:21:04;;;;;;;29.58;17.33;;;8.80;99.90;;;;;;5036232;28;20040;-57
2021/12/14 02:23:32;;;;;;;26.50;17.23;;;8.80;99.90;;;;;;5034750;28;20070;-58
2021/12/14 02:26:00;;;;;;;24.35;16.33;;;8.70;99.90;;;;;;5033624;28;20083;-57
2021/12/14 02:28:26;;;;;;;27.92;16.70;;;8.70;99.90;;;;;;5036545;28;20041;-59
2021/12/14 02:30:54;;;;;;;28.88;17.67;;;8.70;99.90;;;;;;5034551;28;20044;-57
2021/12/14 02:33:29;;;;;;;27.77;18.30;;;8.90;99.90;;;;;;5035146;28;20048;-58
2021/12/14 02:35:56;;;;;;;29.20;17.35;;;8.70;99.90;;;;;;5036074;28;20426;-58
2021/12/14 02:38:22;;;;;;;26.25;17.45;;;8.80;99.90;;;;;;5036197;28;20038;-58
2021/12/14 02:41:01;;;;;;;24.05;17.58;;;8.60;99.90;;;;;;5035253;28;20124;-60
2021/12/14 02:43:44;;;;;;;27.63;16.83;;;8.40;99.90;;;;;;5034924;28;20038;-58
2021/12/14 02:46:15;;;;;;;27.30;16.85;;;8.70;99.90;;;;;;5034955;28;20095;-58
2021/12/14 02:48:47;;;;;;;26.83;17.25;;;8.60;99.90;;;;;;5037958;28;20044;-59
2021/12/14 02:51:17;;;;;;;30.35;18.30;;;8.50;99.90;;;;;;5047029;28;20048;-60
2021/12/14 02:53:47;;;;;;;28.40;17.77;;;8.80;99.90;;;;;;5051605;28;20065;-59
2021/12/14 02:56:15;;;;;;;29.92;18.33;;;8.70;99.90;;;;;;5047435;28;20056;-59
2021/12/14 02:58:41;;;;;;;32.78;17.85;;;8.70;99.90;;;;;;5051700;28;20507;-59
2021/12/14 03:01:08;;;;;;;26.38;17.48;;;8.60;99.90;;;;;;5052358;28;20452;-59
2021/12/14 03:03:35;;;;;;;27.52;17.35;;;8.80;99.90;;;;;;5052173;28;20116;-59
2021/12/14 03:06:02;;;;;;;30.15;18.30;;;8.60;99.90;;;;;;5036202;28;20073;-60
2021/12/14 03:08:33;;;;;;;30.23;18.08;;;8.70;99.90;;;;;;5052841;28;20475;-60
2021/12/14 03:11:12;;;;;;;32.22;18.80;;;8.60;99.90;;;;;;5051428;28;20475;-62
2021/12/14 03:13:43;;;;;;;32.63;19.30;;;8.70;99.90;;;;;;5031368;28;20432;-63
2021/12/14 03:16:13;;;;;;;31.50;19.75;;;8.50;99.90;;;;;;5049660;28;20111;-61
2021/12/14 03:18:41;;;;;;;31.75;19.42;;;8.70;99.90;;;;;;5054090;28;20063;-60
2021/12/14 03:21:14;;;;;;;30.88;19.38;;;8.70;99.90;;;;;;5053433;28;20087;-59
2021/12/14 03:23:49;;;;;;;31.13;18.90;;;8.60;99.90;;;;;;5052422;28;20056;-59
2021/12/14 03:26:17;;;;;;;34.35;19.13;;;8.50;99.90;;;;;;5053853;28;20045;-59
2021/12/14 03:28:48;;;;;;;33.50;19.70;;;8.60;99.90;;;;;;5052018;28;20095;-61
2021/12/14 03:31:14;;;;;;;33.13;19.77;;;8.60;99.90;;;;;;5052263;28;20045;-60
2021/12/14 03:33:43;;;;;;;33.45;20.98;;;8.60;99.90;;;;;;5035486;28;20037;-59
2021/12/14 03:36:20;;;;;;;34.60;20.38;;;8.80;99.90;;;;;;5054356;28;20096;-59
2021/12/14 03:38:50;;;;;;;34.38;20.45;;;8.60;99.90;;;;;;5058460;28;20496;-64
2021/12/14 03:41:21;;;;;;;34.03;20.77;;;8.60;99.90;;;;;;5057800;28;20045;-61
2021/12/14 03:43:57;;;;;;;35.28;20.98;;;8.60;99.90;;;;;;5055838;28;20126;-60
2021/12/14 03:46:23;;;;;;;34.20;19.85;;;;;;;;;;5055691;28;20045;-63
2021/12/14 03:48:49;;;;;;;32.42;20.88;;;8.60;99.90;;;;;;5055824;28;20101;-60
2021/12/14 03:51:19;;;;;;;34.97;20.80;;;8.70;99.90;;;;;;5057037;28;20479;-60
2021/12/14 03:53:45;;;;;;;34.55;20.63;;;8.60;99.90;;;;;;5056696;28;20056;-61
2021/12/14 03:56:10;;;;;;;34.35;20.88;;;8.70;99.90;;;;;;5055414;28;20044;-60
2021/12/14 03:58:39;;;;;;;37.30;21.85;;;8.60;99.90;;;;;;5048774;28;20073;-60
2021/12/14 04:01:12;;;;;;;36.45;21.42;;;8.70;99.90;;;;;;5036571;28;20400;-60
2021/12/14 04:03:39;;;;;;;34.60;20.80;;;8.70;99.90;;;;;;5035333;28;20562;-60
2021/12/14 04:06:06;;;;;;;33.28;20.73;;;8.60;99.90;;;;;;5035717;28;20045;-60
2021/12/14 04:08:33;;;;;;;36.03;21.35;;;8.60;99.90;;;;;;5036636;28;20453;-60
2021/12/14 04:11:00;;;;;;;33.50;20.13;;;8.70;99.90;;;;;;5036528;28;20041;-60
2021/12/14 04:13:30;;;;;;;31.73;20.17;;;8.50;99.90;;;;;;5035359;28;20041;-58
2021/12/14 04:15:56;;;;;;;32.38;20.42;;;8.60;99.90;;;;;;5036389;28;20042;-61
2021/12/14 04:18:24;;;;;;;35.50;20.90;;;8.60;99.90;;;;;;5036615;28;20054;-60
2021/12/14 04:20:52;;;;;;;34.40;20.42;;;8.60;99.90;;;;;;5035206;28;20041;-61
2021/12/14 04:23:29;;;;;;;37.45;23.00;;;8.80;99.90;;;;;;5036442;28;20107;-60
2021/12/14 04:25:57;;;;;;;37.20;21.75;;;8.60;99.90;;;;;;5034958;28;20037;-60
2021/12/14 04:28:28;;;;;;;38.78;22.17;;;8.40;99.90;;;;;;5036292;28;20406;-61
2021/12/14 04:30:54;;;;;;;36.88;21.73;;;8.50;99.90;;;;;;5038466;28;20052;-59
2021/12/14 04:33:30;;;;;;;37.60;22.33;;;8.50;99.90;;;;;;5056117;28;20037;-61
2021/12/14 04:35:57;;;;;;;42.10;22.08;;;8.70;99.90;;;;;;5055135;28;20384;-59
2021/12/14 04:38:34;;;;;;;36.17;22.05;;;8.50;99.90;;;;;;5054827;28;20052;-60
2021/12/14 04:52:13;;;;;;;40.50;21.38;;;8.50;99.90;;;;;;5054650;28;20053;-60
2021/12/14 04:54:47;;;;;;;38.05;21.90;;;8.40;99.90;;;;;;5055580;28;20049;-60
2021/12/14 04:57:18;;;;;;;38.42;22.85;;;8.40;99.90;;;;;;5055530;28;20049;-58
2021/12/14 04:59:44;;;;;;;35.67;21.45;;;8.20;99.90;;;;;;5036455;28;20500;-59
2021/12/14 05:02:14;;;;;;;35.47;21.50;;;8.20;99.90;;;;;;5035778;28;20040;-58
2021/12/14 05:04:40;;;;;;;37.92;22.70;;;8.20;99.90;;;;;;5035486;28;20416;-59
2021/12/14 05:09:20;;;;;;;40.08;22.25;;;8.40;99.90;;;;;;5027253;28;20045;-61
2021/12/14 05:10:06;;;;;;;38.75;22.98;;;8.30;99.90;;;;;;5006748;28;20057;-64
2021/12/14 05:12:34;;;;;;;37.53;22.10;;;8.20;99.90;;;;;;5014357;28;20050;-62
2021/12/14 05:15:05;;;;;;;36.55;22.58;;;8.20;99.90;;;;;;5013079;28;20385;-61
2021/12/14 05:17:34;;;;;;;41.53;24.27;;;8.40;99.90;;;;;;5013256;28;20042;-61
2021/12/14 05:20:03;;;;;;;39.55;24.67;;;8.40;99.90;;;;;;5029420;28;20088;-61
2021/12/14 05:22:33;;;;;;;43.38;24.27;;;8.40;99.90;;;;;;5013127;28;20099;-60
2021/12/14 05:25:04;;;;;;;41.05;23.33;;;8.40;99.90;;;;;;5014362;28;20071;-61
2021/12/14 05:27:36;;;;;;;40.95;23.05;;;8.40;99.90;;;;;;5013065;28;20050;-61
2021/12/14 05:30:11;;;;;;;42.83;23.30;;;8.30;99.90;;;;;;5014251;28;20042;-60
2021/12/14 05:32:37;;;;;;;40.45;24.40;;;8.40;99.90;;;;;;5014015;28;20045;-61
2021/12/14 05:35:04;;;;;;;42.47;25.70;;;;;;;;;;5012849;28;20061;-61
2021/12/14 05:37:34;;;;;;;35.00;22.35;;;8.40;99.90;;;;;;5012754;28;20152;-61
2021/12/14 05:40:04;;;;;;;41.03;24.15;;;8.40;99.90;;;;;;5046146;28;20054;-61
2021/12/14 05:45:19;;;;;;;41.47;23.70;;;8.40;99.90;;;;;;5012794;28;20050;-59
2021/12/14 05:47:53;;;;;;;40.35;24.42;;;8.40;99.90;;;;;;5024983;28;20036;-61
2021/12/14 05:50:25;;;;;;;43.75;24.83;;;8.50;99.90;;;;;;5037269;28;20084;-62
2021/12/14 05:52:50;;;;;;;43.50;25.33;;;8.40;99.90;;;;;;5019144;28;20140;-61
2021/12/14 05:55:23;;;;;;;41.55;24.92;;;8.70;99.90;;;;;;5015909;28;20488;-61
2021/12/14 05:57:48;;;;;;;43.58;26.73;;;8.60;99.90;;;;;;5028580;28;20091;-61
2021/12/14 06:00:16;;;;;;;40.80;25.33;;;8.60;99.90;;;;;;5051676;28;20116;-61
2021/12/14 06:02:42;;;;;;;44.75;26.77;;;8.40;99.90;;;;;;5052583;28;20411;-61
2021/12/14 06:05:13;;;;;;;44.97;26.40;;;8.40;99.90;;;;;;5052296;28;20048;-61
2021/12/14 06:07:39;;;;;;;45.40;26.58;;;8.40;99.90;;;;;;5053352;28;20041;-60
2021/12/14 06:10:06;;;;;;;48.72;27.55;;;;;;;;;;5050533;28;20521;-63
2021/12/14 06:12:34;;;;;;;47.67;27.85;;;8.40;99.90;;;;;;5048658;28;20049;-63
2021/12/14 06:15:01;;;;;;;45.15;27.48;;;8.50;99.90;;;;;;5048572;28;20052;-62
2021/12/14 06:17:34;;;;;;;47.95;27.15;;;8.70;99.90;;;;;;5048099;28;20040;-62
2021/12/14 06:20:06;;;;;;;46.10;27.52;;;8.50;99.90;;;;;;5049600;28;20402;-63
2021/12/14 06:22:33;;;;;;;48.33;27.80;;;8.40;99.90;;;;;;5040250;28;20047;-62
2021/12/14 06:25:03;;;;;;;50.83;28.63;;;8.40;99.90;;;;;;5031624;28;20041;-62
2021/12/14 06:27:31;;;;;;;47.60;28.55;;;8.40;99.90;;;;;;5030244;28;20041;-62
2021/12/14 06:30:06;;;;;;;45.90;26.40;;;8.50;99.90;;;;;;5031723;28;20048;-62
2021/12/14 06:32:39;;;;;;;49.80;30.38;;;8.60;99.90;;;;;;5036139;28;20403;-64
2021/12/14 06:35:06;;;;;;;46.22;27.65;;;;;;;;;;5027686;28;20050;-63
2021/12/14 06:40:06;;;;;;;45.75;28.83;;;;;;;;;;5023529;28;20050;-64
2021/12/14 06:42:33;;;;;;;47.97;29.00;;;8.60;99.90;;;;;;5024721;28;20049;-61
2021/12/14 06:45:27;;;;;;;52.50;29.08;;;8.50;99.90;;;;;;5037704;28;20048;-61
2021/12/14 06:47:58;;;;;;;47.67;28.40;;;8.40;99.90;;;;;;5009711;28;20072;-63
2021/12/14 06:50:33;;;;;;;47.53;27.27;;;8.60;99.90;;;;;;5032346;28;20406;-63
2021/12/14 06:53:04;;;;;;;47.17;28.10;;;;;;;;;;5037990;28;20045;-61
2021/12/14 06:55:32;;;;;;;46.92;28.17;;;8.50;99.90;;;;;;5050049;28;20457;-59
2021/12/14 06:58:14;;;;;;;52.13;30.00;;;8.50;99.90;;;;;;5040034;28;20542;-60
2021/12/14 07:00:46;;;;;;;50.70;29.92;;;8.40;99.90;;;;;;5048871;28;20433;-64
2021/12/14 07:03:12;;;;;;;48.17;28.05;;;8.40;99.90;;;;;;5030871;28;20411;-59
2021/12/14 07:05:41;;;;;;;51.03;29.65;;;8.50;99.90;;;;;;5029888;28;20049;-60
2021/12/14 07:08:14;;;;;;;51.72;29.08;;;8.50;99.90;;;;;;5030652;28;20124;-61
2021/12/14 07:10:42;;;;;;;52.25;31.15;;;8.50;99.90;;;;;;5029320;28;20120;-60
2021/12/14 07:13:17;;;;;;;58.67;31.20;;;8.50;99.90;;;;;;5031329;28;20037;-60
2021/12/14 07:15:43;;;;;;;;;;;8.40;99.90;;;;;;5031232;28;20060;-60
2021/12/14 07:18:09;;;;;;;51.35;29.52;;;;;;;;;;5028009;28;19921;-62
2021/12/14 07:20:43;;;;;;;54.53;32.30;;;8.40;99.90;;;;;;5030183;28;20045;-61
2021/12/14 07:23:21;;;;;;;54.33;32.40;;;;;;;;;;5043848;28;20053;-61
2021/12/14 07:26:11;;;;;;;60.13;33.55;;;8.50;99.90;;;;;;5042294;28;20090;-62
2021/12/14 07:28:39;;;;;;;55.97;32.03;;;;;;;;;;5044178;28;20040;-62
2021/12/14 07:31:12;;;;;;;56.60;31.75;;;8.40;99.90;;;;;;5038013;28;20372;-62
2021/12/14 07:33:45;;;;;;;58.80;33.30;;;8.50;99.90;;;;;;5031336;28;20085;-62
2021/12/14 07:36:20;;;;;;;58.80;31.77;;;8.50;99.90;;;;;;5044268;28;20045;-62
2021/12/14 07:39:00;;;;;;;61.08;33.28;;;8.50;99.90;;;;;;5039885;28;20400;-63
2021/12/14 07:41:33;;;;;;;57.95;32.63;;;8.50;99.90;;;;;;5037322;28;20058;-63
2021/12/14 07:44:10;;;;;;;58.38;32.13;;;8.40;99.90;;;;;;5038986;28;20500;-62
2021/12/14 07:46:48;;;;;;;62.50;33.05;;;8.50;99.90;;;;;;5026988;28;20049;-61
2021/12/14 07:49:32;;;;;;;57.17;31.35;;;8.50;99.90;;;;;;5041628;28;20128;-63
2021/12/14 07:52:09;;;;;;;54.95;31.83;;;8.40;99.90;;;;;;5037859;28;20119;-63
2021/12/14 07:54:46;;;;;;;58.65;32.90;;;8.60;99.90;;;;;;5041468;28;20084;-61
2021/12/14 07:57:33;;;;;;;58.15;33.47;;;8.60;99.90;;;;;;5036853;28;20044;-63
2021/12/14 08:00:00;;;;;;;57.75;31.65;;;8.50;99.90;;;;;;5029808;28;20039;-62
2021/12/14 08:02:32;;;;;;;58.10;33.22;;;8.60;99.90;;;;;;5037057;28;20087;-62
2021/12/14 08:05:17;;;;;;;59.83;32.92;;;8.60;99.90;;;;;;5041575;28;20044;-63
2021/12/14 08:07:45;;;;;;;59.73;32.93;;;;;;;;;;5040983;28;20045;-62
2021/12/14 08:10:14;;;;;;;63.00;32.55;;;8.50;99.90;;;;;;5037736;28;20046;-62
2021/12/14 08:13:17;;;;;;;53.05;31.55;;;8.60;99.90;;;;;;5029069;28;20462;-62
2021/12/14 08:15:52;;;;;;;54.78;32.17;;;8.60;99.90;;;;;;4982894;28;20456;-62
2021/12/14 08:18:34;;;;;;;56.83;32.70;;;8.80;99.90;;;;;;5018467;28;20537;-64
2021/12/14 08:21:19;;;;;;;60.20;34.10;;;8.50;99.90;;;;;;5026356;28;20087;-62
2021/12/14 08:23:48;;;;;;;;;;;8.50;99.90;;;;;;5026741;28;20042;-62
2021/12/14 08:26:23;;;;;;;55.40;32.10;;;8.50;99.90;;;;;;5035281;28;20423;-63
2021/12/14 08:28:58;;;;;;;54.38;31.08;;;8.50;99.90;;;;;;5031823;28;20052;-62
2021/12/14 08:31:39;;;;;;;59.10;33.20;;;8.60;99.90;;;;;;5030209;28;20376;-62
2021/12/14 08:34:08;;;;;;;57.05;32.97;;;8.50;99.90;;;;;;5033524;28;20056;-63
2021/12/14 08:36:42;;;;;;;53.42;32.22;;;8.60;99.90;;;;;;5032411;28;20085;-62
2021/12/14 08:39:08;;;;;;;57.35;31.70;;;;;;;;;;5032841;28;20049;-65
2021/12/14 08:41:35;;;;;;;52.72;32.00;;;;;;;;;;5033705;28;20557;-64
2021/12/14 08:44:09;;;;;;;57.83;32.97;;;8.50;99.90;;;;;;5033689;28;20064;-62
2021/12/14 08:46:36;;;;;;;52.92;33.72;;;8.50;99.90;;;;;;5033550;28;20139;-62
2021/12/14 08:49:07;;;;;;;62.38;34.08;;;8.70;99.90;;;;;;5033630;28;20075;-62
2021/12/14 08:51:37;;;;;;;60.42;33.53;;;8.60;99.90;;;;;;5033642;28;20033;-62
2021/12/14 08:54:16;;;;;;;60.33;33.50;;;8.70;99.90;;;;;;5031776;28;20077;-62
2021/12/14 08:56:48;;;;;;;57.67;32.10;;;8.70;99.90;;;;;;5031916;28;20076;-66
2021/12/14 08:59:14;;;;;;;53.95;31.92;;;8.70;99.90;;;;;;5032125;28;20041;-63
2021/12/14 09:01:42;;;;;;;58.33;33.20;;;8.70;99.90;;;;;;5033495;28;20055;-62
2021/12/14 09:04:15;;;;;;;56.45;31.77;;;8.50;99.90;;;;;;5032183;28;20045;-65
2021/12/14 09:06:46;;;;;;;52.38;31.77;;;8.70;99.90;;;;;;5033099;28;20051;-62
2021/12/14 09:09:15;;;;;;;57.38;32.20;;;8.70;99.90;;;;;;5033381;28;20056;-62
2021/12/14 09:11:44;;;;;;;61.00;33.50;;;8.80;99.90;;;;;;5033120;28;20402;-62
2021/12/14 09:14:14;;;;;;;58.75;32.60;;;8.70;99.90;;;;;;5032010;28;20538;-63
2021/12/14 09:16:43;;;;;;;62.67;33.70;;;8.70;99.90;;;;;;5028497;28;20088;-62
2021/12/14 09:19:23;;;;;;;64.75;33.65;;;8.60;99.90;;;;;;5030855;28;20037;-62
2021/12/14 09:21:53;;;;;;;58.40;33.90;;;8.70;99.90;;;;;;5031649;28;20043;-63
2021/12/14 09:24:22;;;;;;;58.78;33.55;;;8.50;99.90;;;;;;5033064;28;20049;-62
2021/12/14 09:26:56;;;;;;;60.60;32.85;;;8.60;99.90;;;;;;5031450;28;20100;-62
2021/12/14 09:29:24;;;;;;;59.33;33.53;;;8.60;99.90;;;;;;5014664;28;20541;-62
2021/12/14 09:31:53;;;;;;;60.08;33.47;;;8.80;99.90;;;;;;5031386;28;20053;-62
2021/12/14 09:34:22;;;;;;;63.35;33.42;;;8.90;99.90;;;;;;5032837;28;20044;-62
2021/12/14 09:36:50;;;;;;;56.10;33.28;;;8.60;99.90;;;;;;5030199;28;20045;-62
2021/12/14 09:39:30;;;;;;;57.60;32.78;;;8.90;99.90;;;;;;5031468;28;20041;-62
2021/12/14 09:41:58;;;;;;;59.40;32.38;;;8.80;99.90;;;;;;5029648;28;20072;-62
2021/12/14 09:44:27;;;;;;;63.63;35.25;;;8.80;99.90;;;;;;5032784;28;20037;-62
2021/12/14 09:46:56;;;;;;;59.70;32.92;;;8.80;99.90;;;;;;5031412;28;20077;-62
2021/12/14 09:49:22;;;;;;;56.28;30.63;;;8.80;99.90;;;;;;5031278;28;20271;-62
2021/12/14 09:52:03;;;;;;;56.45;32.33;;;8.80;99.90;;;;;;5032210;28;20514;-62
2021/12/14 09:54:29;;;;;;;58.28;30.58;;;;;;;;;;5030685;28;20061;-63
2021/12/14 09:57:08;;;;;;;55.70;30.85;;;8.90;99.90;;;;;;5030927;28;20061;-64
2021/12/14 09:59:37;;;;;;;57.53;31.52;;;8.60;99.90;;;;;;5030815;28;20041;-63
2021/12/14 10:02:15;;;;;;;59.75;31.30;;;;;;;;;;5029182;28;20053;-64
2021/12/14 10:04:49;;;;;;;55.55;30.08;;;8.80;99.90;;;;;;5028032;28;21025;-62
2021/12/14 10:07:16;;;;;;;57.13;31.30;;;8.90;99.90;;;;;;5032281;28;20057;-62
2021/12/14 10:09:47;;;;;;;54.53;29.73;;;8.90;99.90;;;;;;5030714;28;20128;-62
2021/12/14 10:14:51;;;;;;;60.45;30.80;;;8.90;99.90;;;;;;5030779;28;20454;-61
2021/12/14 10:17:20;;;;;;;59.53;31.48;;;8.80;99.90;;;;;;5031572;28;20040;-61
2021/12/14 10:19:47;;;;;;;54.25;29.88;;;8.70;99.90;;;;;;5031757;28;20045;-62
2021/12/14 10:22:21;;;;;;;55.97;30.65;;;8.90;99.90;;;;;;5031355;28;20077;-60
2021/12/14 10:24:48;;;;;;;62.97;29.98;;;;;;;;;;5029714;28;20116;-62
2021/12/14 10:27:18;;;;;;;55.38;28.95;;;8.90;99.90;;;;;;5029477;28;20041;-60
2021/12/14 10:29:45;;;;;;;57.35;30.73;;;;;;;;;;5030092;28;20056;-60
2021/12/14 10:32:21;;;;;;;56.55;29.67;;;8.70;99.90;;;;;;5031981;28;20045;-60
2021/12/14 10:34:51;;;;;;;54.42;27.23;;;8.90;99.90;;;;;;5029338;28;20048;-60
2021/12/14 10:37:25;;;;;;;61.10;31.08;;;;;;;;;;5031465;28;20106;-63
2021/12/14 10:42:52;;;;;;;58.22;30.15;;;8.80;99.90;;;;;;5027771;28;20116;-61
2021/12/14 10:45:21;;;;;;;52.92;28.77;;;8.80;99.90;;;;;;5034150;28;20036;-62
2021/12/14 10:47:47;;;;;;;59.45;29.75;;;8.80;99.90;;;;;;5038223;28;20518;-63
2021/12/14 10:50:16;;;;;;;53.58;27.08;;;9.10;99.90;;;;;;5045636;28;20080;-63
2021/12/14 10:52:43;;;;;;;56.80;29.88;;;;;;;;;;5045845;28;20059;-62
2021/12/14 10:55:24;;;;;;;56.88;29.67;;;9.00;99.90;;;;;;5043139;28;20511;-61
2021/12/14 10:57:50;;;;;;;59.92;30.38;;;8.80;99.90;;;;;;5043315;28;20127;-62
2021/12/14 11:00:30;;;;;;;49.40;27.10;;;8.90;99.90;;;;;;5021674;28;20065;-63
2021/12/14 11:03:04;;;;;;;55.92;28.38;;;9.00;99.90;;;;;;5033930;28;20115;-62
2021/12/14 11:05:36;;;;;;;59.20;30.17;;;8.80;99.90;;;;;;5029835;28;20072;-62
2021/12/14 11:08:03;;;;;;;56.75;29.13;;;8.90;99.90;;;;;;5030655;28;20125;-61
2021/12/14 11:10:35;;;;;;;58.00;29.45;;;;;;;;;;5029001;28;20045;-61
2021/12/14 11:13:08;;;;;;;60.03;28.95;;;9.10;99.90;;;;;;5031113;28;20049;-62
2021/12/14 11:15:39;;;;;;;58.00;28.42;;;8.90;99.90;;;;;;5030985;28;20518;-62
2021/12/14 11:18:11;;;;;;;57.50;27.80;;;9.20;99.90;;;;;;5025048;28;20057;-62
2021/12/14 11:20:49;;;;;;;50.60;26.60;;;9.00;99.90;;;;;;5034805;28;20037;-61
2021/12/14 11:23:28;;;;;;;53.67;26.60;;;9.00;99.90;;;;;;5041273;28;20536;-61
2021/12/14 11:26:09;;;;;;;58.22;29.10;;;9.10;99.90;;;;;;5041351;28;20041;-60
2021/12/14 11:28:43;;;;;;;61.05;28.25;;;9.10;99.90;;;;;;5033314;28;20051;-62
2021/12/14 11:31:18;;;;;;;53.65;27.48;;;9.00;99.90;;;;;;5039502;28;20379;-61
2021/12/14 11:33:50;;;;;;;54.55;25.55;;;9.20;99.90;;;;;;5041605;28;20215;-62
2021/12/14 11:36:17;;;;;;;62.53;28.98;;;9.10;99.90;;;;;;5024385;28;20052;-61
2021/12/14 11:38:52;;;;;;;53.03;26.30;;;9.20;99.90;;;;;;5037162;28;20045;-61
2021/12/14 11:41:29;;;;;;;58.22;26.58;;;9.00;99.90;;;;;;5040507;28;20956;-62
2021/12/14 11:44:17;;;;;;;60.05;26.90;;;8.90;99.90;;;;;;5034264;28;20068;-63
2021/12/14 11:46:53;;;;;;;58.63;27.33;;;9.20;99.90;;;;;;5026845;28;20079;-62
2021/12/14 11:49:21;;;;;;;51.22;26.75;;;9.10;99.90;;;;;;5033148;28;20050;-62
2021/12/14 11:51:47;;;;;;;56.45;27.33;;;9.20;99.90;;;;;;5028217;28;20041;-63
2021/12/14 11:54:15;;;;;;;53.75;27.52;;;;;;;;;;5030003;28;20415;-63
2021/12/14 11:56:41;;;;;;;53.50;26.27;;;;;;;;;;5029064;28;20056;-63
2021/12/14 11:59:08;;;;;;;55.50;25.40;;;9.10;99.90;;;;;;5031437;28;20484;-63
2021/12/14 12:01:48;;;;;;;59.05;26.77;;;9.10;99.90;;;;;;5042220;28;20029;-63
2021/12/14 12:04:18;;;;;;;57.67;27.02;;;9.30;99.90;;;;;;5030774;28;20518;-61
2021/12/14 12:09:45;;;;;;;59.22;26.33;;;;;;;;;;5030399;28;20400;-62
2021/12/14 12:12:25;;;;;;;55.45;26.45;;;9.10;99.90;;;;;;5033561;28;20059;-61
2021/12/14 12:14:57;;;;;;;57.17;27.38;;;9.20;99.90;;;;;;5033944;28;20148;-62
2021/12/14 12:17:42;;;;;;;58.05;26.45;;;9.40;99.90;;;;;;5015498;28;20049;-62
2021/12/14 12:20:14;;;;;;;;;;;9.30;99.90;;;;;;5015765;28;20103;-63
2021/12/14 12:22:44;;;;;;;59.35;27.88;;;;;;;;;;5033315;28;19917;-63
2021/12/14 12:25:18;;;;;;;57.90;26.70;;;9.30;99.90;;;;;;5028639;28;20041;-62
2021/12/14 12:27:50;;;;;;;61.08;26.55;;;9.20;99.90;;;;;;5043806;28;20399;-62
2021/12/14 12:30:35;;;;;;;58.45;26.92;;;;;;;;;;5040751;28;20472;-61
2021/12/14 12:33:04;;;;;;;60.10;26.48;;;9.20;99.90;;;;;;5033877;28;20056;-62
2021/12/14 12:35:42;;;;;;;59.10;25.88;;;9.00;99.90;;;;;;5034507;28;20439;-64
2021/12/14 12:38:26;;;;;;;60.67;26.00;;;9.40;99.90;;;;;;5038791;28;20041;-62
2021/12/14 12:41:16;;;;;;;54.80;26.85;;;9.50;99.90;;;;;;5032078;28;20116;-62
2021/12/14 12:43:52;;;;;;;57.63;26.55;;;9.30;99.90;;;;;;5013662;28;20466;-63
2021/12/14 12:46:23;;;;;;;53.75;25.40;;;9.20;99.90;;;;;;5029123;28;20057;-62
2021/12/14 12:48:49;;;;;;;56.38;26.98;;;;;;;;;;5029449;28;20123;-65
2021/12/14 12:51:37;;;;;;;61.10;25.45;;;9.30;99.90;;;;;;5030498;28;20120;-62
2021/12/14 12:54:14;;;;;;;57.15;26.05;;;;;;;;;;5031911;28;20783;-63
2021/12/14 12:56:42;;;;;;;56.67;25.80;;;9.50;99.90;;;;;;5033354;28;20050;-62
2021/12/14 12:59:10;;;;;;;61.10;25.67;;;9.50;99.90;;;;;;5033415;28;20680;-60
2021/12/14 13:01:37;;;;;;;56.92;24.80;;;9.40;99.90;;;;;;5031428;28;20620;-62
2021/12/14 13:04:04;;;;;;;50.35;23.88;;;;;;;;;;5033639;28;20092;-63
2021/12/14 13:06:30;;;;;;;60.08;24.08;;;;;;;;;;5029746;28;20049;-62
2021/12/14 13:08:58;;;;;;;57.33;25.77;;;9.50;99.90;;;;;;5030432;28;20167;-62
2021/12/14 13:11:28;;;;;;;49.80;23.83;;;9.50;99.90;;;;;;5028962;28;20495;-62
2021/12/14 13:13:58;;;;;;;45.53;22.50;;;9.60;99.90;;;;;;5029135;28;20049;-62
2021/12/14 13:16:29;;;;;;;56.22;23.75;;;9.40;99.90;;;;;;5029492;28;20041;-63
2021/12/14 13:18:57;;;;;;;50.55;23.58;;;9.50;99.90;;;;;;5029125;28;20048;-62
2021/12/14 13:21:41;;;;;;;46.92;23.90;;;9.50;99.90;;;;;;5028780;28;20048;-62
2021/12/14 13:24:29;;;;;;;42.70;21.27;;;11.60;99.90;;;;;;5030575;28;20084;-62
2021/12/14 13:27:05;;;;;;;46.70;21.70;;;9.40;99.90;;;;;;5055944;28;20041;-62
2021/12/14 13:29:54;;;;;;;40.63;20.42;;;9.50;99.90;;;;;;5038478;28;20049;-62
2021/12/14 13:32:29;;;;;;;46.17;22.02;;;9.50;99.90;;;;;;5037554;28;20494;-63
2021/12/14 13:35:04;;;;;;;42.83;20.85;;;9.60;99.90;;;;;;5041240;28;20041;-62
2021/12/14 13:37:33;;;;;;;45.97;20.95;;;9.50;99.90;;;;;;5041135;28;20136;-61
2021/12/14 13:40:00;;;;;;;40.78;20.45;;;9.60;99.90;;;;;;5028579;28;20045;-62
2021/12/14 13:42:47;;;;;;;37.85;19.50;;;9.40;99.90;;;;;;5015023;28;20436;-62
2021/12/14 13:45:21;;;;;;;37.22;19.75;;;9.40;99.90;;;;;;5035713;28;20046;-62